Time;durP1;ratioP1;P1;durP2;ratioP2;P2;SDS_P1;SDS_P2;PMS_P1;PMS_P2;Temp;Humidity;BMP_temperature;BMP_pressure;BME280_temperature;BME280_humidity;BME280_pressure;Samples;Min_cycle;Max_cycle;Signal;HPM_P1;HPM_P2
2022/04/29 00:00:42;;;;;;;54.55;42.45;;;11.10;99.90;;;;;;5105789;28;20044;-74
2022/04/29 00:03:11;;;;;;;55.53;42.88;;;11.00;99.90;;;;;;5081231;28;20047;-77
2022/04/29 00:05:41;;;;;;;56.72;43.03;;;11.00;99.90;;;;;;5095050;28;20053;-76
2022/04/29 00:08:09;;;;;;;54.55;42.30;;;10.90;99.90;;;;;;5111859;28;20395;-74
2022/04/29 00:10:38;;;;;;;57.33;44.13;;;11.00;99.90;;;;;;5087156;28;20412;-75
2022/04/29 00:13:09;;;;;;;54.70;43.53;;;10.90;99.90;;;;;;5114251;28;20429;-75
2022/04/29 00:15:36;;;;;;;56.03;41.50;;;11.00;99.90;;;;;;5105293;28;20032;-75
2022/04/29 00:18:04;;;;;;;56.92;43.20;;;10.90;99.90;;;;;;5095088;28;20046;-74
2022/04/29 00:20:32;;;;;;;55.40;44.20;;;10.90;99.90;;;;;;5114107;28;20435;-76
2022/04/29 00:23:00;;;;;;;56.85;43.75;;;10.90;99.90;;;;;;5114089;28;20043;-75
2022/04/29 00:25:29;;;;;;;68.45;45.80;;;10.90;99.90;;;;;;5114530;28;20044;-75
2022/04/29 00:27:57;;;;;;;60.10;44.30;;;10.90;99.90;;;;;;5087293;28;20047;-75
2022/04/29 00:30:27;;;;;;;59.63;44.28;;;10.90;99.90;;;;;;5128800;28;20028;-77
2022/04/29 00:32:54;;;;;;;60.58;45.78;;;10.80;99.90;;;;;;5137536;28;20039;-76
2022/04/29 00:35:22;;;;;;;65.53;46.67;;;10.90;99.90;;;;;;5121833;28;20048;-75
2022/04/29 00:37:54;;;;;;;64.03;46.15;;;10.90;99.90;;;;;;5095561;28;20463;-75
2022/04/29 00:40:25;;;;;;;62.35;44.35;;;11.00;99.90;;;;;;5112399;28;20071;-74
2022/04/29 00:42:54;;;;;;;75.50;51.67;;;11.00;99.90;;;;;;5113218;28;20916;-75
2022/04/29 00:45:24;;;;;;;61.83;44.75;;;11.00;99.90;;;;;;5113289;28;20039;-75
2022/04/29 00:47:54;;;;;;;66.38;44.88;;;11.00;99.90;;;;;;5091727;28;20043;-75
2022/04/29 00:50:24;;;;;;;73.40;48.78;;;11.00;99.90;;;;;;5109624;28;20045;-76
2022/04/29 00:52:53;;;;;;;68.32;46.63;;;10.90;99.90;;;;;;5095305;28;20047;-76
2022/04/29 00:55:23;;;;;;;84.43;55.08;;;10.90;99.90;;;;;;5093962;28;20094;-76
2022/04/29 00:57:53;;;;;;;86.57;55.42;;;10.80;99.90;;;;;;5098721;28;20433;-76
2022/04/29 01:00:22;;;;;;;86.95;53.65;;;10.90;99.90;;;;;;5097540;28;20031;-74
2022/04/29 01:02:51;;;;;;;83.82;50.42;;;10.90;99.90;;;;;;5112745;28;20097;-76
2022/04/29 01:05:22;;;;;;;82.00;49.03;;;10.90;99.90;;;;;;5091298;28;20063;-76
2022/04/29 01:07:51;;;;;;;91.97;50.53;;;10.90;99.90;;;;;;5094174;28;20047;-76
2022/04/29 01:10:20;;;;;;;80.82;47.20;;;10.90;99.90;;;;;;5111969;28;20056;-76
2022/04/29 01:12:53;;;;;;;77.85;45.55;;;10.80;99.90;;;;;;5113233;28;20062;-76
2022/04/29 01:15:21;;;;;;;73.82;45.42;;;10.70;99.90;;;;;;5095368;28;20070;-76
2022/04/29 01:17:52;;;;;;;70.32;44.13;;;10.70;99.90;;;;;;5117264;28;20062;-76
2022/04/29 01:20:24;;;;;;;64.28;41.17;;;10.70;99.90;;;;;;5103238;28;20052;-76
2022/04/29 01:22:53;;;;;;;66.95;39.97;;;10.70;99.90;;;;;;5099093;28;20048;-75
2022/04/29 01:25:21;;;;;;;66.00;40.28;;;10.70;99.90;;;;;;5115945;28;20059;-75
2022/04/29 01:27:52;;;;;;;69.85;39.47;;;10.70;99.90;;;;;;5098987;28;20055;-76
2022/04/29 01:30:22;;;;;;;66.68;41.60;;;10.70;99.90;;;;;;5096948;28;20051;-76
2022/04/29 01:32:50;;;;;;;69.63;41.17;;;10.70;99.90;;;;;;5105196;28;20067;-75
2022/04/29 01:35:17;;;;;;;69.63;39.33;;;10.70;99.90;;;;;;5109809;28;20557;-75
2022/04/29 01:37:45;;;;;;;71.22;41.20;;;10.60;99.90;;;;;;5095733;28;20028;-77
2022/04/29 01:40:16;;;;;;;70.93;44.47;;;10.70;99.90;;;;;;5107998;28;20099;-76
2022/04/29 01:42:44;;;;;;;72.75;41.67;;;10.60;99.90;;;;;;5094187;28;20051;-75
2022/04/29 01:45:12;;;;;;;69.10;41.92;;;10.60;99.90;;;;;;5098590;28;20126;-74
2022/04/29 01:47:55;;;;;;;70.43;42.30;;;10.60;99.90;;;;;;5117276;28;20044;-76
2022/04/29 01:50:49;;;;;;;67.45;42.28;;;10.50;99.90;;;;;;5108603;28;20056;-74
2022/04/29 01:53:16;;;;;;;75.00;43.65;;;10.40;99.90;;;;;;5116754;28;20035;-76
2022/04/29 01:55:46;;;;;;;75.28;42.55;;;10.30;99.90;;;;;;5122987;28;20016;-76
2022/04/29 01:58:14;;;;;;;96.47;41.55;;;10.30;99.90;;;;;;5123260;28;20062;-76
2022/04/29 02:00:43;;;;;;;78.63;39.92;;;10.20;99.90;;;;;;5120191;28;20043;-76
2022/04/29 02:03:10;;;;;;;242.80;38.03;;;10.20;99.90;;;;;;5104681;28;20430;-77
2022/04/29 02:05:38;;;;;;;130.63;38.75;;;10.20;99.90;;;;;;5111237;28;20075;-76
2022/04/29 02:08:09;;;;;;;110.20;38.65;;;10.10;99.90;;;;;;5088181;28;20036;-77
2022/04/29 02:10:37;;;;;;;72.20;40.13;;;10.10;99.90;;;;;;5099714;28;20418;-77
2022/04/29 02:13:07;;;;;;;88.22;41.60;;;10.10;99.90;;;;;;5098478;28;20043;-76
2022/04/29 02:15:52;;;;;;;152.60;36.90;;;10.10;99.90;;;;;;5098658;28;20047;-75
2022/04/29 02:18:20;;;;;;;174.05;38.92;;;10.20;99.90;;;;;;5114394;28;20050;-75
2022/04/29 02:20:49;;;;;;;121.65;38.80;;;10.10;99.90;;;;;;5098353;28;20039;-76
2022/04/29 02:23:17;;;;;;;95.57;38.13;;;10.00;99.90;;;;;;5097912;28;20130;-76
2022/04/29 02:25:45;;;;;;;78.43;37.38;;;10.00;99.90;;;;;;5098979;28;20044;-76
2022/04/29 02:28:13;;;;;;;92.05;37.50;;;10.00;99.90;;;;;;5098225;28;20133;-77
2022/04/29 02:30:42;;;;;;;61.53;37.65;;;9.90;99.90;;;;;;5098121;28;20071;-76
2022/04/29 02:33:09;;;;;;;51.63;37.85;;;9.80;99.90;;;;;;5115863;28;20046;-76
2022/04/29 02:35:37;;;;;;;66.32;35.70;;;9.90;99.90;;;;;;5098420;28;20051;-76
2022/04/29 02:38:04;;;;;;;55.53;36.55;;;9.90;99.90;;;;;;5116473;28;20036;-76
2022/04/29 02:40:32;;;;;;;56.05;35.28;;;9.90;99.90;;;;;;5105821;28;20040;-78
2022/04/29 02:43:01;;;;;;;58.17;35.00;;;9.90;99.90;;;;;;5118296;28;20473;-76
2022/04/29 02:45:31;;;;;;;49.22;32.70;;;9.90;99.90;;;;;;5116841;28;20051;-76
2022/04/29 02:47:58;;;;;;;49.28;34.10;;;9.80;99.90;;;;;;5097541;28;20135;-75
2022/04/29 02:50:26;;;;;;;45.13;32.13;;;9.80;99.90;;;;;;5094820;28;20048;-75
2022/04/29 02:53:01;;;;;;;49.95;33.20;;;9.80;99.90;;;;;;5094981;28;20105;-76
2022/04/29 02:55:29;;;;;;;47.03;32.22;;;9.90;99.90;;;;;;5098191;28;20051;-76
2022/04/29 02:58:05;;;;;;;;;;;9.80;99.90;;;;;;5098874;28;20392;-76
2022/04/29 03:00:35;;;;;;;112.43;33.20;;;9.70;99.90;;;;;;5098719;28;19919;-76
2022/04/29 03:03:02;;;;;;;63.47;31.35;;;9.60;99.90;;;;;;5097132;28;20047;-77
2022/04/29 03:05:31;;;;;;;61.28;33.78;;;9.60;99.90;;;;;;5097412;28;20043;-76
2022/04/29 03:07:58;;;;;;;88.38;33.13;;;9.50;99.90;;;;;;5097994;28;20548;-77
2022/04/29 03:10:26;;;;;;;76.65;34.22;;;9.50;99.90;;;;;;5098091;28;20059;-78
2022/04/29 03:12:55;;;;;;;55.38;34.05;;;9.40;99.90;;;;;;5098786;28;20048;-77
2022/04/29 03:15:28;;;;;;;67.72;35.00;;;9.30;99.90;;;;;;5099039;28;20083;-76
2022/04/29 03:20:48;;;;;;;61.05;33.72;;;9.30;99.90;;;;;;5094181;28;20052;-75
2022/04/29 03:23:17;;;;;;;55.13;34.35;;;9.30;99.90;;;;;;5084334;28;20043;-77
2022/04/29 03:25:48;;;;;;;50.15;33.70;;;9.30;99.90;;;;;;5115272;28;20040;-75
2022/04/29 03:28:19;;;;;;;51.10;33.20;;;9.40;99.90;;;;;;5115943;28;20053;-76
2022/04/29 03:30:47;;;;;;;57.67;33.25;;;9.30;99.90;;;;;;5097021;28;20055;-75
2022/04/29 03:33:17;;;;;;;59.75;31.00;;;9.30;99.90;;;;;;5096949;28;20130;-76
2022/04/29 03:35:50;;;;;;;57.17;31.50;;;9.20;99.90;;;;;;5117150;28;20047;-76
2022/04/29 03:38:25;;;;;;;51.50;34.95;;;9.20;99.90;;;;;;5096222;28;20043;-76
2022/04/29 03:40:53;;;;;;;60.75;37.08;;;9.20;99.90;;;;;;5097232;28;20067;-76
2022/04/29 03:43:25;;;;;;;65.60;35.80;;;9.20;99.90;;;;;;5096563;28;20039;-76
2022/04/29 03:45:53;;;;;;;57.15;38.00;;;9.10;99.90;;;;;;5114180;28;20465;-76
2022/04/29 03:51:31;;;;;;;66.82;35.45;;;9.10;99.90;;;;;;5096835;28;20050;-75
2022/04/29 03:53:59;;;;;;;54.58;35.72;;;9.10;99.90;;;;;;5096690;28;20050;-75
2022/04/29 03:56:26;;;;;;;57.28;36.13;;;9.10;99.90;;;;;;5097562;28;20445;-76
2022/04/29 03:58:54;;;;;;;53.97;34.40;;;9.10;99.90;;;;;;5114756;28;20507;-75
2022/04/29 04:01:21;;;;;;;52.35;33.97;;;9.20;99.90;;;;;;5115477;28;20060;-75
2022/04/29 04:04:03;;;;;;;50.90;34.05;;;9.20;99.90;;;;;;5096192;28;20054;-76
2022/04/29 04:09:13;;;;;;;60.90;35.40;;;9.20;99.90;;;;;;5089928;28;20047;-76
2022/04/29 04:11:41;;;;;;;81.53;30.92;;;9.20;99.90;;;;;;5101030;28;20051;-76
2022/04/29 04:14:11;;;;;;;70.45;31.05;;;9.20;99.90;;;;;;5098964;28;20071;-76
2022/04/29 04:16:45;;;;;;;49.70;34.25;;;9.20;99.90;;;;;;5095401;28;20104;-77
2022/04/29 04:19:16;;;;;;;46.83;32.72;;;9.10;99.90;;;;;;5094823;28;20052;-76
2022/04/29 04:21:44;;;;;;;61.10;33.55;;;9.10;99.90;;;;;;5104779;28;20070;-77
2022/04/29 04:24:12;;;;;;;57.88;34.85;;;9.10;99.90;;;;;;5101271;28;20051;-77
2022/04/29 04:26:40;;;;;;;47.78;33.42;;;9.10;99.90;;;;;;5097688;28;20044;-77
2022/04/29 04:29:11;;;;;;;67.28;34.10;;;9.10;99.90;;;;;;5096920;28;20405;-77
2022/04/29 04:31:44;;;;;;;58.33;34.13;;;9.10;99.90;;;;;;5097324;28;20058;-78
2022/04/29 04:36:58;;;;;;;60.85;34.65;;;9.10;99.90;;;;;;5095965;28;20107;-77
2022/04/29 04:39:26;;;;;;;59.42;35.45;;;9.10;99.90;;;;;;5075842;28;20114;-78
2022/04/29 04:42:00;;;;;;;66.95;41.15;;;9.10;99.90;;;;;;5078959;28;20135;-76
2022/04/29 04:44:37;;;;;;;75.82;45.50;;;9.10;99.90;;;;;;5097681;28;20044;-76
2022/04/29 04:47:06;;;;;;;77.15;45.20;;;9.20;99.90;;;;;;5097783;28;20040;-76
2022/04/29 04:49:54;;;;;;;75.70;41.50;;;9.20;99.90;;;;;;5088802;28;20048;-75
2022/04/29 04:52:27;;;;;;;68.40;40.60;;;9.20;99.90;;;;;;5099691;28;20055;-76
2022/04/29 04:54:55;;;;;;;72.55;38.53;;;9.30;99.90;;;;;;5105113;28;20074;-77
2022/04/29 04:57:26;;;;;;;60.75;37.05;;;9.40;99.90;;;;;;5106132;28;20048;-75
2022/04/29 04:59:54;;;;;;;65.13;37.45;;;9.30;99.90;;;;;;5095003;28;20053;-76
2022/04/29 05:02:22;;;;;;;65.43;38.78;;;9.40;99.90;;;;;;5104832;28;20024;-76
2022/04/29 05:05:09;;;;;;;71.25;37.35;;;9.30;99.90;;;;;;5110066;28;20047;-76
2022/04/29 05:07:46;;;;;;;60.15;38.25;;;9.30;99.90;;;;;;5094338;28;20044;-77
2022/04/29 05:10:14;;;;;;;64.97;40.47;;;9.30;99.90;;;;;;5070217;22;20411;-77
2022/04/29 05:12:43;;;;;;;61.05;39.97;;;9.30;99.90;;;;;;5042078;28;20487;-77
2022/04/29 05:15:17;;;;;;;66.20;40.30;;;9.30;99.90;;;;;;5049550;28;20156;-78
2022/04/29 05:17:45;;;;;;;64.43;39.28;;;9.30;99.90;;;;;;5040037;28;20033;-76
2022/04/29 05:20:15;;;;;;;64.30;37.25;;;9.30;99.90;;;;;;5056438;28;20045;-77
2022/04/29 05:22:47;;;;;;;58.40;34.78;;;9.30;99.90;;;;;;5055612;28;20561;-77
2022/04/29 05:25:15;;;;;;;60.13;39.13;;;9.30;99.90;;;;;;5038658;28;20076;-76
2022/04/29 05:28:01;;;;;;;55.75;30.35;;;9.40;99.90;;;;;;5057366;28;20052;-76
2022/04/29 05:30:47;;;;;;;47.13;31.23;;;9.50;99.90;;;;;;5057459;28;20149;-77
2022/04/29 05:33:38;;;;;;;45.08;31.70;;;9.60;99.90;;;;;;5019847;28;20472;-76
2022/04/29 05:36:25;;;;;;;42.80;30.73;;;9.90;99.90;;;;;;5059662;28;20091;-76
2022/04/29 05:44:38;;;;;;;40.45;28.98;;;10.30;99.90;;;;;;5061268;28;20139;-76
2022/04/29 05:47:07;;;;;;;42.05;29.40;;;10.30;99.90;;;;;;5060520;28;20049;-77
2022/04/29 05:49:34;;;;;;;39.50;28.55;;;10.50;99.90;;;;;;5044669;28;20045;-76
2022/04/29 05:52:03;;;;;;;46.30;30.70;;;10.60;99.90;;;;;;5063792;28;20071;-77
2022/04/29 05:54:36;;;;;;;48.15;32.13;;;10.70;99.90;;;;;;5048257;28;20095;-77
2022/04/29 05:57:05;;;;;;;49.92;32.97;;;10.70;99.90;;;;;;5049343;28;20047;-77
2022/04/29 05:59:33;;;;;;;50.05;33.80;;;10.80;99.90;;;;;;5050043;28;20144;-77
2022/04/29 06:02:24;;;;;;;47.75;31.73;;;11.10;99.90;;;;;;5059774;28;20131;-76
2022/04/29 06:05:11;;;;;;;36.45;28.45;;;11.40;99.90;;;;;;5066305;28;20056;-77
2022/04/29 06:07:42;;;;;;;40.08;28.35;;;11.80;99.90;;;;;;5043426;28;20045;-77
2022/04/29 06:10:13;;;;;;;39.33;27.90;;;12.30;99.90;;;;;;5038180;28;20056;-76
2022/04/29 06:12:43;;;;;;;35.22;27.10;;;12.70;99.90;;;;;;5038270;28;20411;-77
2022/04/29 06:15:23;;;;;;;35.78;28.90;;;13.10;99.90;;;;;;5037196;28;20053;-77
2022/04/29 06:18:09;;;;;;;41.22;28.83;;;13.60;99.90;;;;;;5052661;28;20514;-76
2022/04/29 06:20:56;;;;;;;33.72;25.35;;;14.30;99.90;;;;;;5056950;28;20538;-76
2022/04/29 06:23:39;;;;;;;33.78;26.02;;;14.80;99.90;;;;;;5039703;28;20049;-77
2022/04/29 06:26:08;;;;;;;36.03;26.63;;;15.00;99.90;;;;;;5043076;28;20055;-77
2022/04/29 06:28:36;;;;;;;36.85;28.17;;;15.20;99.90;;;;;;5042815;28;20175;-76
2022/04/29 06:31:06;;;;;;;40.10;28.67;;;15.70;99.90;;;;;;5038408;28;20136;-77
2022/04/29 06:33:38;;;;;;;41.88;29.30;;;16.00;99.90;;;;;;5055088;28;20055;-76
2022/04/29 06:36:09;;;;;;;35.25;27.45;;;16.00;99.90;;;;;;5038169;28;20049;-77
2022/04/29 06:38:38;;;;;;;45.45;28.05;;;15.80;99.90;;;;;;5038118;28;20035;-77
2022/04/29 06:41:25;;;;;;;40.22;28.77;;;15.60;99.90;;;;;;5055173;28;20115;-75
2022/04/29 06:44:06;;;;;;;45.95;30.30;;;15.80;99.90;;;;;;5032699;28;20546;-75
2022/04/29 06:47:02;;;;;;;51.42;31.48;;;16.00;99.90;;;;;;5051815;28;20048;-76
2022/04/29 06:49:48;;;;;;;52.53;31.92;;;16.20;99.90;;;;;;5048466;28;20424;-76
2022/04/29 06:52:34;;;;;;;44.90;31.83;;;16.30;99.90;;;;;;5046624;28;20051;-75
2022/04/29 06:55:18;;;;;;;47.38;32.33;;;16.50;99.90;;;;;;5037829;28;20524;-75
2022/04/29 06:57:47;;;;;;;47.45;32.22;;;16.80;99.90;;;;;;5057743;28;20040;-75
2022/04/29 07:00:18;;;;;;;55.10;33.65;;;16.80;99.90;;;;;;5041455;28;20044;-75
2022/04/29 07:02:46;;;;;;;48.17;35.58;;;16.80;99.90;;;;;;5040208;28;20041;-76
2022/04/29 07:05:14;;;;;;;51.25;37.40;;;16.90;99.90;;;;;;5060982;28;20036;-76
2022/04/29 07:07:42;;;;;;;58.40;38.45;;;16.70;99.90;;;;;;5041152;28;20041;-76
2022/04/29 07:10:35;;;;;;;56.17;40.78;;;17.00;99.90;;;;;;5054828;28;20123;-75
2022/04/29 07:13:23;;;;;;;64.47;44.30;;;16.90;99.90;;;;;;5055593;28;20056;-76
2022/04/29 07:15:51;;;;;;;60.75;44.85;;;17.20;99.90;;;;;;5038953;28;20049;-75
2022/04/29 07:18:54;;;;;;;66.20;45.10;;;17.60;99.90;;;;;;4987437;28;20051;-75
2022/04/29 07:21:21;;;;;;;70.90;44.67;;;17.60;99.90;;;;;;5036430;28;20503;-75
2022/04/29 07:23:49;;;;;;;70.07;44.28;;;17.40;99.90;;;;;;5039323;28;20131;-76
2022/04/29 07:26:18;;;;;;;69.95;43.67;;;17.10;99.90;;;;;;5040255;28;20148;-76
2022/04/29 07:28:48;;;;;;;66.20;41.92;;;16.50;99.90;;;;;;5038433;28;20049;-75
2022/04/29 07:31:15;;;;;;;73.43;45.80;;;16.80;99.90;;;;;;5041653;28;20041;-77
2022/04/29 07:41:44;;;;;;;66.30;43.83;;;17.10;99.90;;;;;;5031090;28;20073;-77
2022/04/29 07:43:00;;;;;;;65.65;44.55;;;17.10;99.90;;;;;;5035403;28;20158;-77
2022/04/29 07:45:31;;;;;;;66.63;44.13;;;17.50;99.90;;;;;;5046387;28;20064;-77
2022/04/29 07:48:22;;;;;;;59.30;41.15;;;17.50;99.90;;;;;;5055465;28;20049;-77
2022/04/29 07:50:50;;;;;;;56.72;39.15;;;17.30;99.90;;;;;;5044983;28;20041;-78
2022/04/29 07:53:19;;;;;;;58.85;39.72;;;17.40;99.90;;;;;;5050498;28;20132;-77
2022/04/29 07:55:47;;;;;;;55.67;37.60;;;17.50;99.90;;;;;;5051371;28;20045;-77
2022/04/29 07:58:15;;;;;;;57.63;37.58;;;17.80;99.90;;;;;;5045416;28;20041;-77
2022/04/29 08:00:44;;;;;;;48.90;33.97;;;18.10;99.90;;;;;;5043622;28;20049;-77
2022/04/29 08:03:12;;;;;;;47.80;34.22;;;18.20;99.90;;;;;;5043775;28;20153;-76
2022/04/29 08:06:03;;;;;;;48.95;32.83;;;18.00;99.90;;;;;;5026664;28;20053;-75
2022/04/29 08:08:31;;;;;;;46.70;31.30;;;18.20;99.90;;;;;;5036672;28;20049;-77
2022/04/29 08:10:59;;;;;;;46.50;30.35;;;18.30;99.90;;;;;;5036875;28;20152;-76
2022/04/29 08:13:30;;;;;;;46.90;35.15;;;18.10;99.90;;;;;;5037262;28;20048;-77
2022/04/29 08:16:30;;;;;;;43.40;29.25;;;18.20;99.90;;;;;;4997612;28;20051;-77
2022/04/29 08:19:23;;;;;;;44.13;31.05;;;18.20;99.90;;;;;;5017459;28;20073;-76
2022/04/29 08:22:08;;;;;;;42.92;28.95;;;18.40;99.90;;;;;;5046873;28;20052;-77
2022/04/29 08:24:36;;;;;;;51.33;30.80;;;18.40;99.90;;;;;;5037206;28;20049;-76
2022/04/29 08:27:05;;;;;;;44.95;29.90;;;18.40;99.90;;;;;;5059217;28;20080;-75
2022/04/29 08:29:32;;;;;;;45.00;30.15;;;18.80;99.90;;;;;;5040532;28;20100;-77
2022/04/29 08:32:04;;;;;;;47.92;29.48;;;19.30;99.90;;;;;;5058395;28;20087;-77
2022/04/29 08:34:33;;;;;;;36.15;26.63;;;19.70;99.90;;;;;;5040577;28;20057;-77
2022/04/29 08:37:02;;;;;;;40.30;26.77;;;20.00;99.90;;;;;;5041125;28;20056;-77
2022/04/29 08:39:31;;;;;;;42.08;28.10;;;19.90;99.90;;;;;;5039998;28;20416;-76
2022/04/29 08:42:01;;;;;;;38.15;25.90;;;20.00;99.90;;;;;;5039494;28;20073;-76
2022/04/29 08:44:30;;;;;;;46.45;29.13;;;20.00;99.90;;;;;;5039475;28;20060;-76
2022/04/29 08:47:19;;;;;;;33.72;23.58;;;19.90;99.90;;;;;;5057587;28;20559;-76
2022/04/29 08:50:01;;;;;;;35.38;23.92;;;19.70;99.90;;;;;;5040913;28;20052;-77
2022/04/29 08:52:29;;;;;;;33.20;23.67;;;19.50;99.90;;;;;;5058154;28;20063;-76
2022/04/29 09:00:30;;;;;;;37.80;28.38;;;19.90;99.90;;;;;;5059422;28;20041;-76
2022/04/29 09:03:02;;;;;;;37.05;23.67;;;20.40;99.90;;;;;;5040770;28;20421;-78
2022/04/29 09:05:29;;;;;;;32.30;23.70;;;20.50;99.90;;;;;;5040350;28;20049;-78
2022/04/29 09:08:00;;;;;;;19.35;14.57;;;20.50;99.90;;;;;;5058473;28;20503;-76
2022/04/29 09:10:29;;;;;;;12.20;9.20;;;20.40;99.90;;;;;;5057300;28;20097;-77
2022/04/29 09:13:11;;;;;;;12.45;7.60;;;20.70;99.90;;;;;;5057026;28;20045;-77
2022/04/29 09:15:45;;;;;;;6.80;4.50;;;20.80;99.90;;;;;;5057277;28;20559;-78
2022/04/29 09:18:14;;;;;;;6.00;3.78;;;20.50;99.90;;;;;;5039087;28;20060;-77
2022/04/29 09:20:42;;;;;;;10.77;4.82;;;19.80;99.90;;;;;;5057666;28;20040;-78
2022/04/29 09:23:10;;;;;;;9.15;4.50;;;19.50;99.90;;;;;;5057427;28;20045;-77
2022/04/29 09:26:20;;;;;;;6.93;3.83;;;19.20;99.90;;;;;;5024200;28;20044;-77
2022/04/29 09:29:11;;;;;;;7.75;4.10;;;19.10;99.90;;;;;;5039353;28;20045;-76
2022/04/29 09:31:53;;;;;;;6.85;4.07;;;18.70;99.90;;;;;;5039472;28;20040;-77
2022/04/29 09:34:50;;;;;;;6.13;3.60;;;19.20;99.90;;;;;;5020517;28;20057;-77
2022/04/29 09:37:19;;;;;;;8.55;4.70;;;19.40;99.90;;;;;;5041173;28;20052;-76
2022/04/29 09:39:52;;;;;;;7.60;3.90;;;19.50;99.90;;;;;;5060249;28;20040;-78
2022/04/29 09:42:21;;;;;;;7.88;3.97;;;19.20;99.00;;;;;;5059848;28;20045;-77
2022/04/29 09:44:48;;;;;;;6.97;4.03;;;18.70;98.40;;;;;;5077065;28;20068;-77
2022/04/29 09:47:19;;;;;;;5.35;3.78;;;18.40;99.10;;;;;;5048984;28;20045;-77
2022/04/29 09:49:55;;;;;;;6.32;3.65;;;18.50;99.90;;;;;;5057848;28;20045;-77
2022/04/29 09:52:23;;;;;;;8.25;4.47;;;18.40;97.70;;;;;;5057767;28;20146;-77
2022/04/29 09:54:51;;;;;;;6.95;4.00;;;18.10;98.50;;;;;;5057466;28;20128;-77
2022/04/29 09:57:22;;;;;;;6.18;3.83;;;18.10;99.70;;;;;;5059291;28;20060;-77
2022/04/29 09:59:52;;;;;;;5.72;4.03;;;18.20;99.90;;;;;;5067396;28;20045;-77
2022/04/29 10:02:22;;;;;;;7.13;4.45;;;17.80;99.50;;;;;;5068494;28;20040;-77
2022/04/29 10:04:54;;;;;;;7.90;4.20;;;18.10;99.90;;;;;;5039583;28;20075;-77
2022/04/29 10:07:24;;;;;;;9.73;5.40;;;18.50;99.90;;;;;;5039935;28;20049;-77
2022/04/29 10:09:57;;;;;;;6.20;4.65;;;18.70;99.90;;;;;;5029496;28;20050;-78
2022/04/29 10:12:26;;;;;;;5.35;3.60;;;19.20;99.70;;;;;;5018983;28;20068;-75
2022/04/29 10:15:16;;;;;;;6.22;4.10;;;19.00;98.80;;;;;;5019955;28;20577;-76
2022/04/29 10:23:39;;;;;;;7.65;3.33;;;18.60;98.20;;;;;;5036631;28;20037;-77
2022/04/29 10:26:07;;;;;;;6.63;3.80;;;18.70;96.80;;;;;;5037469;28;20041;-77
2022/04/29 10:28:36;;;;;;;5.60;4.10;;;18.60;96.10;;;;;;5036416;28;20059;-77
2022/04/29 10:31:06;;;;;;;6.45;3.88;;;18.80;97.10;;;;;;5019448;28;20499;-76
2022/04/29 10:33:36;;;;;;;15.43;4.25;;;18.80;95.30;;;;;;5018736;28;20064;-76
2022/04/29 10:36:09;;;;;;;7.53;4.55;;;18.40;96.60;;;;;;5037354;28;20528;-77
2022/04/29 10:38:39;;;;;;;7.60;4.47;;;18.40;96.60;;;;;;5038124;28;20045;-77
2022/04/29 10:41:12;;;;;;;6.38;4.88;;;18.80;97.70;;;;;;5036724;28;20052;-77
2022/04/29 10:43:40;;;;;;;7.18;4.68;;;19.50;99.10;;;;;;5038661;28;20072;-77
2022/04/29 10:46:22;;;;;;;6.32;4.25;;;19.50;98.00;;;;;;5037460;28;20050;-78
2022/04/29 10:49:24;;;;;;;7.07;3.92;;;19.20;97.20;;;;;;5027847;28;20081;-78
2022/04/29 10:52:29;;;;;;;7.97;5.18;;;19.10;98.00;;;;;;5015343;28;20500;-78
2022/04/29 10:55:07;;;;;;;7.30;4.22;;;19.30;97.20;;;;;;5039538;28;20049;-79
2022/04/29 10:58:01;;;;;;;6.28;4.25;;;19.10;97.30;;;;;;5039134;28;20080;-79
2022/04/29 11:00:30;;;;;;;8.55;4.20;;;19.00;97.40;;;;;;5022433;28;20056;-78
2022/04/29 11:03:38;;;;;;;7.10;5.18;;;18.80;97.20;;;;;;5021160;28;20049;-77
2022/04/29 11:06:10;;;;;;;7.82;4.15;;;18.60;98.50;;;;;;5040106;28;20041;-78
2022/04/29 11:08:40;;;;;;;5.75;3.70;;;18.50;98.10;;;;;;5024030;28;20041;-76
2022/04/29 11:11:08;;;;;;;7.25;3.88;;;18.50;98.00;;;;;;5061468;28;20484;-79
2022/04/29 11:14:02;;;;;;;8.20;4.97;;;18.50;97.70;;;;;;5055623;28;20515;-79
2022/04/29 11:16:52;;;;;;;5.25;3.67;;;18.50;98.00;;;;;;5061332;28;20102;-78
2022/04/29 11:19:45;;;;;;;6.18;4.07;;;18.40;97.50;;;;;;5058928;28;20052;-80
2022/04/29 11:25:06;;;;;;;8.13;4.40;;;18.60;98.30;;;;;;5042115;28;20048;-78
2022/04/29 11:27:43;;;;;;;6.45;4.55;;;18.70;97.90;;;;;;5040790;28;20053;-79
2022/04/29 11:30:39;;;;;;;;;;;18.90;98.40;;;;;;5008973;28;20054;-78
2022/04/29 11:33:15;;;;;;;6.97;5.10;;;19.10;98.70;;;;;;5063733;28;19955;-77
2022/04/29 11:35:43;;;;;;;6.90;4.13;;;19.30;98.80;;;;;;5058598;28;20099;-77
2022/04/29 11:38:11;;;;;;;7.95;4.43;;;19.30;98.30;;;;;;5039552;28;20044;-76
2022/04/29 11:40:40;;;;;;;5.70;3.95;;;19.20;98.20;;;;;;5057755;28;20044;-78
2022/04/29 11:43:11;;;;;;;8.15;4.80;;;19.00;97.40;;;;;;5039479;28;20048;-77
2022/04/29 11:45:40;;;;;;;9.27;6.10;;;19.00;98.10;;;;;;5057935;28;20498;-78
2022/04/29 11:48:10;;;;;;;7.95;5.72;;;18.90;97.60;;;;;;5040982;28;20052;-78
2022/04/29 11:50:39;;;;;;;7.68;5.25;;;18.60;98.50;;;;;;5059542;28;20037;-77
2022/04/29 11:53:08;;;;;;;8.05;4.90;;;18.50;98.90;;;;;;5043966;28;20045;-78
2022/04/29 11:55:36;;;;;;;10.40;5.40;;;18.50;99.60;;;;;;5064382;28;20052;-78
2022/04/29 11:58:05;;;;;;;7.95;4.57;;;18.30;99.90;;;;;;5047912;28;20049;-77
2022/04/29 12:00:35;;;;;;;6.40;4.70;;;19.00;99.90;;;;;;5067962;28;20053;-76
2022/04/29 12:03:04;;;;;;;6.18;4.80;;;19.50;99.40;;;;;;5061749;28;20041;-78
2022/04/29 12:05:32;;;;;;;6.63;4.82;;;19.60;99.20;;;;;;5058141;28;20067;-77
2022/04/29 12:08:05;;;;;;;8.35;4.57;;;19.80;99.00;;;;;;5039995;28;20048;-77
2022/04/29 12:10:45;;;;;;;12.82;6.68;;;19.80;99.20;;;;;;5044891;28;20056;-78
2022/04/29 12:13:14;;;;;;;7.63;4.65;;;19.70;99.90;;;;;;5062754;28;20044;-77
2022/04/29 12:15:44;;;;;;;10.90;6.10;;;19.90;99.20;;;;;;5038545;28;20132;-78
2022/04/29 12:18:13;;;;;;;11.30;6.97;;;20.00;99.80;;;;;;5055773;28;20049;-77
2022/04/29 12:20:43;;;;;;;6.22;4.68;;;20.30;99.30;;;;;;5037918;28;20041;-77
2022/04/29 12:23:12;;;;;;;6.47;4.45;;;20.50;97.80;;;;;;5055313;28;20079;-76
2022/04/29 12:25:42;;;;;;;6.85;4.60;;;20.40;97.70;;;;;;5054662;28;20381;-77
2022/04/29 12:28:19;;;;;;;6.28;4.55;;;20.40;97.80;;;;;;5037104;28;20465;-77
2022/04/29 12:36:47;;;;;;;8.85;4.70;;;20.30;95.90;;;;;;4985360;28;20339;-77
2022/04/29 12:39:20;;;;;;;8.02;5.68;;;20.70;96.90;;;;;;5054698;28;20095;-77
2022/04/29 12:42:01;;;;;;;8.05;4.22;;;20.70;97.20;;;;;;5054933;28;20049;-78
2022/04/29 12:45:05;;;;;;;6.13;3.53;;;20.70;96.00;;;;;;5054633;28;20045;-77
2022/04/29 12:47:46;;;;;;;9.88;3.83;;;20.70;95.90;;;;;;5036503;28;20567;-77
2022/04/29 12:50:23;;;;;;;5.57;3.70;;;20.20;95.30;;;;;;5055379;28;20463;-76
2022/04/29 12:52:57;;;;;;;6.95;4.50;;;20.10;95.60;;;;;;5052584;28;20068;-77
2022/04/29 12:55:25;;;;;;;8.32;4.45;;;19.80;96.20;;;;;;5054071;28;20041;-77
2022/04/29 12:57:53;;;;;;;5.22;3.90;;;19.70;96.40;;;;;;5054641;28;20044;-78
2022/04/29 13:00:26;;;;;;;8.43;4.10;;;19.40;94.70;;;;;;5054061;28;20504;-76
2022/04/29 13:03:05;;;;;;;7.53;3.90;;;19.10;95.00;;;;;;5058982;28;20041;-78
2022/04/29 13:05:34;;;;;;;6.53;3.83;;;18.90;95.60;;;;;;5057336;28;20075;-79
2022/04/29 13:08:03;;;;;;;6.05;4.10;;;18.70;96.00;;;;;;5040330;28;20057;-77
2022/04/29 13:10:41;;;;;;;5.13;4.35;;;18.80;95.70;;;;;;5055133;28;20125;-77
2022/04/29 13:13:08;;;;;;;5.18;3.83;;;18.50;96.10;;;;;;5058459;28;20043;-76
2022/04/29 13:15:40;;;;;;;5.57;4.25;;;18.70;96.00;;;;;;5043189;28;20059;-79
2022/04/29 13:18:08;;;;;;;5.47;3.97;;;18.60;96.50;;;;;;5040567;28;20056;-78
2022/04/29 13:20:35;;;;;;;5.85;4.40;;;18.60;96.90;;;;;;5060120;28;20045;-78
2022/04/29 13:23:05;;;;;;;6.28;4.72;;;19.20;97.00;;;;;;5041581;28;20049;-78
2022/04/29 13:25:36;;;;;;;5.53;4.32;;;19.90;97.00;;;;;;5058574;28;20120;-77
2022/04/29 13:28:05;;;;;;;6.70;3.90;;;20.10;96.90;;;;;;5040131;28;20384;-77
2022/04/29 13:30:32;;;;;;;9.05;4.15;;;20.30;96.10;;;;;;5057124;28;20041;-77
2022/04/29 13:33:02;;;;;;;6.40;4.15;;;20.60;95.70;;;;;;5056824;28;20055;-77
2022/04/29 13:35:30;;;;;;;7.93;4.38;;;20.60;95.30;;;;;;5041035;28;20132;-77
2022/04/29 13:37:57;;;;;;;7.30;4.30;;;20.30;95.60;;;;;;5064724;28;20045;-77
2022/04/29 13:40:25;;;;;;;6.28;4.45;;;19.70;95.10;;;;;;5063160;28;20037;-77
2022/04/29 13:42:53;;;;;;;6.85;4.80;;;19.40;94.70;;;;;;5061853;28;20057;-77
2022/04/29 13:45:21;;;;;;;6.93;5.28;;;18.80;95.80;;;;;;5051976;28;20064;-77
2022/04/29 13:47:49;;;;;;;9.57;4.68;;;18.40;96.10;;;;;;5071151;28;20045;-78